Time;durP1;ratioP1;P1;durP2;ratioP2;P2;SDS_P1;SDS_P2;PMS_P1;PMS_P2;Temp;Humidity;BMP_temperature;BMP_pressure;BME280_temperature;BME280_humidity;BME280_pressure;Samples;Min_cycle;Max_cycle;Signal;HPM_P1;HPM_P2
2022/01/10 00:01:02;;;;;;;42.17;12.73;;;;;;;5.61;78.87;100385.69;5025694;28;20045;-67
2022/01/10 00:03:28;;;;;;;25.15;11.90;;;;;;;5.63;78.68;100390.81;5025645;28;20041;-67
2022/01/10 00:05:55;;;;;;;27.08;11.75;;;;;;;5.91;77.66;100390.66;5026812;28;20118;-67
2022/01/10 00:08:21;;;;;;;23.52;11.95;;;;;;;5.54;78.59;100389.41;5025986;28;20491;-68
2022/01/10 00:10:48;;;;;;;30.65;10.93;;;;;;;5.50;79.27;100400.84;5025619;28;20049;-66
2022/01/10 00:13:14;;;;;;;24.65;13.77;;;;;;;5.28;80.44;100405.09;5025335;28;20100;-67
2022/01/10 00:15:42;;;;;;;22.33;11.30;;;;;;;5.20;81.34;100407.13;5028438;28;20046;-67
2022/01/10 00:18:09;;;;;;;26.00;21.67;;;;;;;5.09;81.01;100410.09;5027635;28;20115;-67
2022/01/10 00:20:35;;;;;;;21.55;17.65;;;;;;;5.05;81.85;100405.03;5032117;28;20045;-67
2022/01/10 00:23:01;;;;;;;16.85;10.88;;;;;;;5.13;81.51;100413.44;5044510;28;20041;-67
2022/01/10 00:25:28;;;;;;;24.60;12.63;;;;;;;5.39;80.45;100416.78;5025444;28;20115;-67
2022/01/10 00:27:55;;;;;;;31.92;19.48;;;;;;;5.48;79.81;100413.03;5030980;28;20045;-67
2022/01/10 00:30:22;;;;;;;27.83;21.90;;;;;;;5.37;80.42;100413.41;5031189;28;20512;-67
2022/01/10 00:32:52;;;;;;;24.25;14.77;;;;;;;5.15;81.40;100422.84;5031889;28;20045;-67
2022/01/10 00:35:19;;;;;;;23.17;11.95;;;;;;;5.46;79.85;100427.00;5031886;28;20042;-67
2022/01/10 00:37:46;;;;;;;20.02;11.13;;;;;;;5.32;80.45;100422.28;5031649;28;20049;-67
2022/01/10 00:40:15;;;;;;;26.08;11.88;;;;;;;5.44;80.35;100432.22;5031944;28;20038;-67
2022/01/10 00:42:42;;;;;;;22.67;11.68;;;;;;;5.52;79.77;100429.34;5015252;28;20038;-67
2022/01/10 00:45:17;;;;;;;24.13;13.00;;;;;;;5.60;79.13;100430.78;5023312;28;20049;-67
2022/01/10 00:47:46;;;;;;;32.63;13.85;;;;;;;5.60;79.45;100433.41;5031490;28;20053;-67
2022/01/10 00:50:14;;;;;;;32.75;14.50;;;;;;;5.47;79.94;100442.53;5031543;28;20059;-67
2022/01/10 00:52:40;;;;;;;25.40;14.98;;;;;;;5.49;79.71;100448.53;5031251;28;20053;-67
2022/01/10 00:55:07;;;;;;;19.00;12.60;;;;;;;5.60;79.28;100442.94;5030654;28;20037;-67
2022/01/10 00:57:34;;;;;;;21.15;13.20;;;;;;;5.26;81.24;100449.34;5034186;28;20045;-67
2022/01/10 01:00:00;;;;;;;28.25;14.15;;;;;;;5.28;80.55;100457.09;5028815;28;20084;-67
2022/01/10 01:02:32;;;;;;;29.48;15.45;;;;;;;5.52;79.94;100463.16;5031249;28;20057;-67
2022/01/10 01:04:58;;;;;;;32.63;11.93;;;;;;;5.76;78.85;100463.16;5031715;28;20041;-67
2022/01/10 01:07:26;;;;;;;24.13;13.93;;;;;;;5.87;78.46;100468.00;5031757;28;20053;-67
2022/01/10 01:10:03;;;;;;;29.75;13.07;;;;;;;5.84;79.14;100475.84;5031487;28;20041;-67
2022/01/10 01:12:40;;;;;;;30.10;12.70;;;;;;;5.85;78.73;100475.81;5031201;28;20041;-67
2022/01/10 01:15:18;;;;;;;24.90;13.63;;;;;;;5.96;78.32;100488.47;5030921;28;20513;-67
2022/01/10 01:17:58;;;;;;;18.10;11.60;;;;;;;6.08;77.75;100495.81;5030848;28;20052;-67
2022/01/10 01:20:30;;;;;;;30.02;13.40;;;;;;;6.17;77.09;100498.06;5031437;28;20049;-67
2022/01/10 01:25:41;;;;;;;30.50;12.63;;;;;;;5.97;78.17;100507.53;5029574;28;20500;-67
2022/01/10 01:28:08;;;;;;;28.90;13.00;;;;;;;5.78;79.10;100518.56;5029762;28;20115;-67
2022/01/10 01:30:34;;;;;;;28.20;13.15;;;;;;;6.06;78.00;100518.44;5029712;28;20453;-67
2022/01/10 01:33:01;;;;;;;28.65;13.25;;;;;;;5.82;78.62;100527.97;5030791;28;20080;-67
2022/01/10 01:35:28;;;;;;;24.70;12.93;;;;;;;5.82;79.04;100538.38;5031073;28;20049;-67
2022/01/10 01:37:55;;;;;;;31.88;13.43;;;;;;;5.87;79.08;100535.66;5033262;28;20385;-67
2022/01/10 01:40:26;;;;;;;29.60;15.55;;;;;;;5.88;78.70;100552.94;5032695;28;20045;-67
2022/01/10 01:42:53;;;;;;;28.10;13.85;;;;;;;6.04;78.29;100554.09;5031134;28;20041;-67
2022/01/10 01:45:19;;;;;;;32.42;12.60;;;;;;;6.02;78.15;100555.94;5030127;28;20065;-67
2022/01/10 01:47:45;;;;;;;34.47;14.30;;;;;;;6.02;78.51;100558.53;5030027;28;20076;-68
2022/01/10 01:50:12;;;;;;;30.30;13.73;;;;;;;5.96;78.32;100566.53;5017850;28;20073;-67
2022/01/10 01:52:39;;;;;;;29.30;17.15;;;;;;;5.94;78.30;100575.31;5029842;28;20053;-67
2022/01/10 01:55:07;;;;;;;31.45;13.90;;;;;;;6.05;78.05;100573.19;5030583;28;20068;-68
2022/01/10 01:57:35;;;;;;;23.80;13.43;;;;;;;5.75;79.49;100577.66;5029913;28;20045;-68
2022/01/10 02:00:04;;;;;;;33.45;13.15;;;;;;;6.08;78.24;100583.47;5029814;28;20079;-67
2022/01/10 02:02:30;;;;;;;29.58;13.57;;;;;;;6.13;78.02;100589.38;5030443;28;20045;-68
2022/01/10 02:04:57;;;;;;;30.92;12.18;;;;;;;6.19;77.40;100583.94;5031007;28;20091;-68
2022/01/10 02:07:23;;;;;;;31.20;13.57;;;;;;;6.18;77.17;100600.47;5028983;28;20548;-68
2022/01/10 02:09:50;;;;;;;24.80;13.05;;;;;;;6.36;77.04;100597.19;5030395;28;20096;-68
2022/01/10 02:12:16;;;;;;;22.08;12.38;;;;;;;6.09;78.13;100603.41;5030298;28;20041;-68
2022/01/10 02:14:46;;;;;;;26.00;13.52;;;;;;;6.13;77.27;100599.78;5029552;28;20107;-68
2022/01/10 02:17:16;;;;;;;26.47;12.13;;;;;;;6.31;77.67;100609.53;5029764;28;20517;-68
2022/01/10 02:19:53;;;;;;;30.17;12.52;;;;;;;6.45;76.91;100606.44;5030062;28;20120;-68
2022/01/10 02:22:19;;;;;;;28.55;12.90;;;;;;;6.11;77.85;100614.59;5030267;28;20459;-68
2022/01/10 02:24:46;;;;;;;37.58;13.27;;;;;;;6.01;78.68;100614.09;5023322;28;20079;-68
2022/01/10 02:27:12;;;;;;;26.17;12.35;;;;;;;6.20;77.59;100628.16;5029463;28;20045;-68
2022/01/10 02:29:38;;;;;;;35.65;12.82;;;;;;;6.14;77.94;100622.28;5029735;28;20046;-68
2022/01/10 02:32:05;;;;;;;29.83;12.95;;;;;;;6.26;77.68;100629.69;5029647;28;20045;-68
2022/01/10 02:34:32;;;;;;;27.55;12.20;;;;;;;6.64;76.33;100628.28;5029753;28;20038;-68
2022/01/10 02:37:00;;;;;;;29.50;13.18;;;;;;;6.12;77.95;100635.38;5029730;28;20083;-68
2022/01/10 02:39:27;;;;;;;34.65;22.95;;;;;;;6.06;78.18;100642.56;5029765;28;20106;-68
2022/01/10 02:41:53;;;;;;;26.00;12.75;;;;;;;6.34;77.34;100644.13;5028694;28;20041;-68
2022/01/10 02:44:20;;;;;;;23.85;13.93;;;;;;;6.34;77.22;100654.53;5029988;28;20045;-68
2022/01/10 02:46:47;;;;;;;25.30;13.35;;;;;;;6.42;77.35;100656.03;5029363;28;20049;-68
2022/01/10 02:49:15;;;;;;;32.92;13.52;;;;;;;6.41;77.43;100662.13;5029682;28;20041;-68
2022/01/10 02:51:42;;;;;;;27.25;12.80;;;;;;;6.26;77.58;100668.72;5029831;28;20167;-68
2022/01/10 02:54:12;;;;;;;29.48;12.95;;;;;;;6.58;76.30;100665.81;5021543;28;20037;-68
2022/01/10 02:56:46;;;;;;;37.85;13.10;;;;;;;6.79;75.63;100678.09;5028637;28;20091;-68
2022/01/10 02:59:13;;;;;;;33.50;13.55;;;;;;;6.58;76.38;100680.59;5023768;28;20688;-68
2022/01/10 03:01:39;;;;;;;30.30;15.57;;;;;;;6.51;76.56;100685.19;5029293;28;20098;-68
2022/01/10 03:04:05;;;;;;;28.17;14.13;;;;;;;6.45;77.64;100684.56;5029024;28;20068;-68
2022/01/10 03:06:32;;;;;;;31.08;13.35;;;;;;;6.67;76.31;100696.75;5029644;28;20042;-68
2022/01/10 03:09:04;;;;;;;29.05;14.32;;;;;;;6.67;76.48;100701.97;5028938;28;20049;-68
2022/01/10 03:11:32;;;;;;;47.65;14.40;;;;;;;6.85;75.51;100708.25;5029108;28;20049;-68
2022/01/10 03:13:58;;;;;;;30.17;13.27;;;;;;;7.04;75.19;100717.09;5025766;28;20410;-68
2022/01/10 03:16:25;;;;;;;35.90;14.57;;;;;;;6.79;75.72;100711.09;5009855;28;20042;-68
2022/01/10 03:18:51;;;;;;;34.38;13.65;;;;;;;6.75;76.00;100720.78;5012484;28;20065;-68
2022/01/10 03:21:20;;;;;;;37.78;14.40;;;;;;;6.78;76.04;100725.88;5029053;28;20137;-68
2022/01/10 03:23:46;;;;;;;25.33;13.75;;;;;;;6.86;75.83;100723.00;5028829;28;20564;-68
2022/01/10 03:26:13;;;;;;;36.78;16.13;;;;;;;6.34;77.16;100726.63;5026794;28;20045;-68
2022/01/10 03:28:40;;;;;;;35.55;14.82;;;;;;;6.63;76.80;100726.44;5026093;28;20045;-68
2022/01/10 03:31:07;;;;;;;38.17;14.68;;;;;;;6.63;76.57;100723.84;5023477;28;20501;-68
2022/01/10 03:33:33;;;;;;;45.85;14.98;;;;;;;6.62;76.16;100726.47;5022390;28;20049;-68
2022/01/10 03:35:59;;;;;;;28.17;14.15;;;;;;;6.80;75.78;100733.63;5034056;28;20045;-68
2022/01/10 03:38:26;;;;;;;29.17;13.23;;;;;;;6.39;77.33;100734.28;5027486;28;20072;-68
2022/01/10 03:40:53;;;;;;;32.15;13.52;;;;;;;6.37;77.86;100744.72;5026311;28;20041;-68
2022/01/10 03:43:21;;;;;;;40.80;14.38;;;;;;;6.34;77.69;100750.91;5026370;28;20127;-68
2022/01/10 03:45:48;;;;;;;43.72;14.55;;;;;;;6.24;77.99;100756.47;5026654;28;20053;-68
2022/01/10 03:48:15;;;;;;;37.83;14.98;;;;;;;6.36;77.61;100754.28;5033464;28;20134;-67
2022/01/10 03:50:41;;;;;;;32.40;14.57;;;;;;;6.54;77.11;100757.19;5025440;28;20072;-66
2022/01/10 03:53:07;;;;;;;43.78;16.95;;;;;;;6.50;77.38;100766.00;5025665;28;20080;-66
2022/01/10 03:55:34;;;;;;;45.72;15.60;;;;;;;6.11;79.11;100762.97;5029828;28;20116;-66
2022/01/10 03:58:00;;;;;;;37.42;15.88;;;;;;;6.40;78.27;100764.59;5029980;28;20037;-66
2022/01/10 04:00:27;;;;;;;42.97;34.65;;;;;;;5.97;79.38;100773.00;5030956;28;20460;-66
2022/01/10 04:02:59;;;;;;;40.90;15.80;;;;;;;6.02;79.74;100773.72;5028178;28;20648;-66
2022/01/10 04:05:25;;;;;;;73.47;61.70;;;;;;;5.64;81.58;100780.94;5023944;28;20050;-65
2022/01/10 04:07:52;;;;;;;34.90;15.35;;;;;;;5.85;80.79;100785.47;5029408;28;20049;-66
2022/01/10 04:10:18;;;;;;;39.08;16.13;;;;;;;6.02;79.82;100794.53;5027869;28;20045;-66
2022/01/10 04:12:44;;;;;;;42.38;15.70;;;;;;;6.08;79.35;100802.97;5029957;28;20076;-66
2022/01/10 04:15:11;;;;;;;47.08;17.73;;;;;;;5.73;80.46;100805.78;5029991;28;20053;-66
2022/01/10 04:17:38;;;;;;;42.42;21.67;;;;;;;5.79;80.43;100808.22;5029899;28;20107;-66
2022/01/10 04:20:07;;;;;;;37.33;17.75;;;;;;;6.17;79.26;100812.25;5030716;28;20144;-66
2022/01/10 04:22:33;;;;;;;46.03;19.38;;;;;;;5.88;80.02;100818.38;5031460;28;20517;-66
2022/01/10 04:25:00;;;;;;;39.08;17.25;;;;;;;5.89;80.21;100820.06;5031868;28;20049;-66
2022/01/10 04:27:31;;;;;;;41.83;16.52;;;;;;;6.10;79.76;100823.75;5031914;28;20395;-66
2022/01/10 04:29:58;;;;;;;37.90;16.17;;;;;;;6.15;78.93;100814.91;5024485;28;20045;-66
2022/01/10 04:32:26;;;;;;;37.05;16.48;;;;;;;5.86;79.93;100830.59;5031846;28;20107;-66
2022/01/10 04:34:52;;;;;;;44.67;19.88;;;;;;;6.13;78.79;100832.34;5031971;28;20091;-66
2022/01/10 04:37:20;;;;;;;38.55;17.15;;;;;;;6.25;78.20;100841.47;5032147;28;20068;-66
2022/01/10 04:39:46;;;;;;;50.38;18.02;;;;;;;6.07;78.84;100840.31;5031292;28;20129;-67
2022/01/10 04:42:13;;;;;;;45.88;18.40;;;;;;;6.19;78.05;100844.28;5031723;28;20072;-67
2022/01/10 04:44:40;;;;;;;39.55;16.60;;;;;;;6.39;77.36;100846.25;5049825;28;20115;-66
2022/01/10 04:47:06;;;;;;;42.67;19.13;;;;;;;6.18;78.48;100845.19;5051763;28;20584;-66
2022/01/10 04:49:50;;;;;;;38.67;16.50;;;;;;;6.06;78.77;100850.81;5044503;28;20045;-67
2022/01/10 04:52:17;;;;;;;50.28;19.05;;;;;;;5.73;79.94;100858.69;5031801;28;20056;-66
2022/01/10 04:54:45;;;;;;;38.33;18.38;;;;;;;5.85;79.78;100865.28;5031963;28;20045;-66
2022/01/10 04:57:11;;;;;;;46.97;17.33;;;;;;;6.06;78.50;100869.03;5031105;28;20057;-67
2022/01/10 04:59:37;;;;;;;44.60;19.13;;;;;;;5.97;78.80;100870.16;5031060;28;20045;-67
2022/01/10 05:02:04;;;;;;;41.00;18.92;;;;;;;6.25;77.75;100876.19;5031696;28;20049;-67
2022/01/10 05:04:30;;;;;;;47.45;18.92;;;;;;;6.21;77.19;100889.34;5031451;28;20060;-67
2022/01/10 05:06:57;;;;;;;39.38;17.95;;;;;;;6.04;77.70;100889.03;5031876;28;20072;-67
2022/01/10 05:09:23;;;;;;;51.08;19.48;;;;;;;6.06;77.47;100895.06;5031483;28;20046;-67
2022/01/10 05:11:51;;;;;;;38.50;17.80;;;;;;;6.26;76.97;100903.09;5031039;28;20057;-67
2022/01/10 05:14:17;;;;;;;40.10;16.73;;;;;;;6.39;75.83;100913.97;5030849;28;20045;-67
2022/01/10 05:16:44;;;;;;;38.38;18.00;;;;;;;6.16;77.30;100905.13;5031038;28;20053;-67
2022/01/10 05:19:11;;;;;;;47.40;19.52;;;;;;;6.21;77.09;100917.97;5031394;28;20512;-67
2022/01/10 05:21:38;;;;;;;52.53;19.75;;;;;;;6.30;77.02;100925.53;5031735;28;20552;-67
2022/01/10 05:24:05;;;;;;;43.50;20.17;;;;;;;6.38;76.70;100933.97;5022771;28;20075;-67
2022/01/10 05:26:31;;;;;;;52.65;19.15;;;;;;;6.36;76.93;100943.56;5030818;28;20064;-67
2022/01/10 05:29:01;;;;;;;53.20;20.30;;;;;;;6.17;77.62;100945.88;5031266;28;20567;-67
2022/01/10 05:31:28;;;;;;;50.17;20.15;;;;;;;6.19;78.33;100954.50;5031407;28;20482;-67
2022/01/10 05:33:55;;;;;;;60.88;21.67;;;;;;;6.39;77.67;100960.84;5011709;28;20587;-67
2022/01/10 05:36:21;;;;;;;46.08;20.08;;;;;;;6.18;78.46;100972.75;5011614;28;20050;-67
2022/01/10 05:38:47;;;;;;;42.40;20.20;;;;;;;6.31;78.00;100985.38;5026591;28;20439;-67
2022/01/10 05:41:14;;;;;;;58.28;20.77;;;;;;;5.94;79.42;100979.56;5030623;28;20435;-67
2022/01/10 05:43:41;;;;;;;37.13;19.80;;;;;;;6.38;77.87;100993.84;5031135;28;20464;-67
2022/01/10 05:46:09;;;;;;;49.05;20.42;;;;;;;6.23;78.17;101002.97;5031063;28;20045;-67
2022/01/10 05:48:36;;;;;;;39.70;19.23;;;;;;;6.16;77.81;101008.41;5030516;28;20045;-67
2022/01/10 05:51:03;;;;;;;49.95;19.45;;;;;;;6.30;78.00;101011.47;5030933;28;20148;-67
2022/01/10 05:53:29;;;;;;;46.40;19.58;;;;;;;6.50;76.93;101019.53;5022970;28;20096;-67
2022/01/10 05:55:55;;;;;;;42.60;18.10;;;;;;;6.24;78.31;101028.13;5030626;28;20465;-67
2022/01/10 05:58:22;;;;;;;45.25;18.80;;;;;;;6.31;77.46;101027.06;5030347;28;20073;-67
2022/01/10 06:00:48;;;;;;;49.78;18.48;;;;;;;6.44;76.90;101034.47;5030076;28;20068;-67
2022/01/10 06:03:16;;;;;;;39.70;19.90;;;;;;;6.58;76.90;101037.50;5030616;28;20049;-67
2022/01/10 06:05:43;;;;;;;56.10;20.48;;;;;;;6.55;76.86;101043.69;5030519;28;20042;-67
2022/01/10 06:08:09;;;;;;;51.33;19.02;;;;;;;6.41;77.20;101045.00;5029933;28;20087;-67
2022/01/10 06:10:36;;;;;;;42.75;21.60;;;;;;;5.91;78.75;101054.25;5031974;28;20084;-66
2022/01/10 06:13:03;;;;;;;41.05;19.67;;;;;;;6.42;77.59;101057.13;5034158;28;20059;-66
2022/01/10 06:15:30;;;;;;;40.35;17.92;;;;;;;6.47;77.37;101068.28;5034181;28;20115;-66
2022/01/10 06:17:56;;;;;;;53.00;20.17;;;;;;;6.55;77.15;101066.28;5032376;28;20037;-68
2022/01/10 06:20:24;;;;;;;47.10;20.58;;;;;;;6.34;77.67;101078.19;5031982;28;20056;-67
2022/01/10 06:22:51;;;;;;;45.15;20.10;;;;;;;6.54;76.94;101073.22;5031121;28;20049;-67
2022/01/10 06:25:20;;;;;;;52.47;21.00;;;;;;;6.44;77.11;101079.63;5031590;28;20095;-67
2022/01/10 06:27:47;;;;;;;53.10;19.70;;;;;;;6.54;77.26;101078.44;5028695;28;20080;-66
2022/01/10 06:30:13;;;;;;;51.58;18.75;;;;;;;6.24;77.99;101071.53;5030972;28;20417;-67
2022/01/10 06:32:40;;;;;;;45.90;18.80;;;;;;;6.50;76.99;101081.19;5030127;28;20041;-67
2022/01/10 06:35:07;;;;;;;57.28;18.35;;;;;;;6.54;76.71;101085.44;5028937;28;20053;-67
2022/01/10 06:37:35;;;;;;;41.25;19.02;;;;;;;6.34;77.90;101094.66;5029269;28;20057;-67
2022/01/10 06:40:02;;;;;;;37.55;18.45;;;;;;;6.43;77.20;101101.34;5029703;28;20053;-67
2022/01/10 06:42:28;;;;;;;49.67;18.35;;;;;;;6.54;76.87;101106.28;5030196;28;20463;-67
2022/01/10 06:44:55;;;;;;;45.88;20.10;;;;;;;6.75;76.22;101113.44;5029852;28;20049;-67
2022/01/10 06:47:21;;;;;;;42.45;18.88;;;;;;;6.78;76.22;101119.41;5029419;28;20048;-67
2022/01/10 06:49:48;;;;;;;47.80;18.75;;;;;;;6.78;76.20;101128.97;5029236;28;20122;-66
2022/01/10 06:52:14;;;;;;;53.75;19.83;;;;;;;6.84;76.06;101141.81;5029868;28;20104;-66
2022/01/10 06:54:42;;;;;;;44.53;19.58;;;;;;;6.82;75.91;101143.63;5019399;28;20041;-67
2022/01/10 06:57:09;;;;;;;45.45;19.80;;;;;;;6.71;76.11;101148.31;5023030;28;20441;-67
2022/01/10 06:59:35;;;;;;;45.90;20.75;;;;;;;6.84;75.24;101154.84;5028924;28;20046;-68
2022/01/10 07:02:01;;;;;;;43.63;20.20;;;;;;;6.41;76.82;101168.28;5029117;28;20049;-67
2022/01/10 07:04:28;;;;;;;44.15;19.05;;;;;;;6.51;76.84;101174.06;5029474;28;20045;-68
2022/01/10 07:06:55;;;;;;;43.05;19.88;;;;;;;6.56;77.03;101178.28;5029332;28;20049;-67
2022/01/10 07:09:22;;;;;;;41.75;18.45;;;;;;;6.60;76.27;101174.69;5029155;28;20050;-67
2022/01/10 07:11:50;;;;;;;51.10;19.13;;;;;;;6.45;77.16;101188.13;5029026;28;20046;-67
2022/01/10 07:14:17;;;;;;;53.05;18.67;;;;;;;6.60;76.20;101189.47;5029134;28;20065;-67
2022/01/10 07:16:44;;;;;;;53.65;18.77;;;;;;;6.39;77.11;101195.28;5028779;28;20045;-67
2022/01/10 07:19:10;;;;;;;40.63;17.42;;;;;;;6.31;77.23;101205.88;5028112;28;20509;-68
2022/01/10 07:21:39;;;;;;;39.90;16.83;;;;;;;6.46;76.59;101202.00;5025345;28;20110;-68
2022/01/10 07:24:05;;;;;;;39.47;17.35;;;;;;;6.19;77.47;101212.28;5027111;28;20044;-67
2022/01/10 07:26:33;;;;;;;48.92;17.10;;;;;;;6.36;76.83;101227.44;5042197;28;20069;-67
2022/01/10 07:29:00;;;;;;;40.90;17.23;;;;;;;6.25;77.89;101224.25;5018085;28;20045;-67
2022/01/10 07:31:27;;;;;;;39.97;17.90;;;;;;;6.24;77.60;101233.84;5021410;28;20060;-67
2022/01/10 07:33:54;;;;;;;45.22;17.73;;;;;;;6.42;76.35;101234.25;5030031;28;20044;-68
2022/01/10 07:36:21;;;;;;;43.97;19.85;;;;;;;5.80;78.62;101240.09;5034437;28;20053;-68
2022/01/10 07:38:47;;;;;;;45.33;18.33;;;;;;;6.18;77.97;101248.75;5046845;28;20086;-67
2022/01/10 07:41:14;;;;;;;37.92;16.90;;;;;;;6.10;77.95;101250.69;5030053;28;20092;-67
2022/01/10 07:43:40;;;;;;;37.13;17.02;;;;;;;6.28;77.14;101256.28;5028912;28;20091;-67
2022/01/10 07:46:08;;;;;;;38.83;16.42;;;;;;;6.48;76.60;101255.78;5024491;28;20045;-68
2022/01/10 07:48:37;;;;;;;34.60;16.15;;;;;;;6.50;76.35;101261.81;5017125;28;20041;-67
2022/01/10 07:51:08;;;;;;;42.38;17.38;;;;;;;6.03;78.22;101267.34;5027632;28;20107;-67
2022/01/10 07:53:35;;;;;;;40.85;17.25;;;;;;;6.48;76.55;101271.41;5041887;28;20133;-68
2022/01/10 07:56:02;;;;;;;33.10;17.17;;;;;;;6.47;77.11;101274.06;5033564;28;20041;-68
2022/01/10 07:58:29;;;;;;;38.03;17.42;;;;;;;6.68;76.26;101278.69;5027235;28;20045;-68
2022/01/10 08:00:55;;;;;;;40.05;16.63;;;;;;;6.59;75.72;101294.56;5029679;28;20462;-68
2022/01/10 08:03:23;;;;;;;46.97;17.92;;;;;;;6.55;76.19;101296.41;5036522;28;20049;-68
2022/01/10 08:05:49;;;;;;;43.40;17.02;;;;;;;6.50;76.26;101303.50;5037204;28;20045;-68
2022/01/10 08:08:16;;;;;;;34.88;14.73;;;;;;;6.50;76.53;101300.03;5044694;28;20049;-68
2022/01/10 08:10:42;;;;;;;40.92;18.45;;;;;;;6.45;76.58;101304.50;5042976;28;20100;-68
2022/01/10 08:13:09;;;;;;;36.85;16.60;;;;;;;6.71;75.93;101310.75;5040706;28;20425;-68
2022/01/10 08:15:35;;;;;;;41.15;15.52;;;;;;;6.81;75.87;101312.19;5040547;28;20049;-68
2022/01/10 08:18:02;;;;;;;35.10;14.82;;;;;;;7.02;74.69;101322.94;5031592;28;20490;-68
2022/01/10 08:20:29;;;;;;;35.35;15.45;;;;;;;6.79;75.44;101327.03;5032008;28;20041;-68
2022/01/10 08:22:56;;;;;;;29.88;14.95;;;;;;;6.91;75.32;101330.22;5025245;28;20459;-68
2022/01/10 08:25:22;;;;;;;36.00;15.18;;;;;;;6.88;75.14;101338.09;5041390;28;20102;-68
2022/01/10 08:27:49;;;;;;;35.85;15.55;;;;;;;7.08;74.66;101339.28;5048021;28;20068;-68
2022/01/10 08:30:16;;;;;;;41.88;15.63;;;;;;;6.98;74.71;101344.78;5031166;28;20099;-68
2022/01/10 08:32:44;;;;;;;36.30;15.35;;;;;;;7.01;74.89;101347.31;5028513;28;20045;-68
2022/01/10 08:35:11;;;;;;;30.73;15.15;;;;;;;6.93;74.82;101357.94;5028735;28;20041;-68
2022/01/10 08:37:39;;;;;;;36.70;15.43;;;;;;;7.06;74.75;101358.47;5025358;28;20050;-68
2022/01/10 08:40:06;;;;;;;33.22;14.93;;;;;;;6.86;75.07;101359.00;5041661;28;20045;-68
2022/01/10 08:42:33;;;;;;;52.05;16.67;;;;;;;6.79;75.88;101375.69;5043530;28;20049;-68
2022/01/10 08:44:59;;;;;;;41.60;15.73;;;;;;;6.92;75.70;101368.41;5051751;28;20114;-68
2022/01/10 08:47:27;;;;;;;33.38;16.23;;;;;;;6.90;75.53;101383.22;5045885;28;20456;-68
2022/01/10 08:49:54;;;;;;;50.22;16.13;;;;;;;6.77;75.88;101380.94;5049654;28;20094;-68
2022/01/10 08:52:20;;;;;;;34.55;15.52;;;;;;;6.85;76.06;101381.59;5038435;28;20465;-68
2022/01/10 08:54:49;;;;;;;38.15;16.48;;;;;;;6.58;76.80;101392.72;5043528;28;20624;-68
2022/01/10 08:57:15;;;;;;;41.33;15.82;;;;;;;6.94;75.75;101388.34;5039714;28;20085;-68
2022/01/10 08:59:42;;;;;;;42.95;17.58;;;;;;;6.83;76.31;101391.22;5044081;28;20087;-68
2022/01/10 09:02:08;;;;;;;39.60;16.40;;;;;;;6.94;75.59;101397.91;5019959;28;20049;-68
2022/01/10 09:04:35;;;;;;;43.90;16.58;;;;;;;6.87;76.19;101398.97;5019109;28;20095;-68
2022/01/10 09:07:02;;;;;;;48.00;18.77;;;;;;;6.96;75.94;101414.34;5048317;28;20049;-68
2022/01/10 09:09:29;;;;;;;46.88;17.05;;;;;;;6.79;76.33;101415.66;5036260;28;20614;-68
2022/01/10 09:11:57;;;;;;;34.00;16.98;;;;;;;6.47;77.19;101420.78;5044394;28;20044;-68
2022/01/10 09:14:23;;;;;;;43.30;16.85;;;;;;;6.81;76.53;101419.06;5043383;28;20123;-68
2022/01/10 09:16:50;;;;;;;39.08;17.27;;;;;;;6.81;76.82;101428.63;5038755;28;20041;-68
2022/01/10 09:19:16;;;;;;;43.08;16.55;;;;;;;6.51;77.94;101429.38;5045842;28;20108;-68
2022/01/10 09:21:43;;;;;;;43.63;16.42;;;;;;;6.82;76.72;101439.03;5038992;28;20072;-68
2022/01/10 09:24:09;;;;;;;39.72;16.13;;;;;;;7.02;76.47;101437.69;5041078;28;20049;-68
2022/01/10 09:26:35;;;;;;;41.15;17.20;;;;;;;7.22;75.22;101445.81;5038405;28;20570;-68
2022/01/10 09:29:03;;;;;;;37.72;16.42;;;;;;;7.28;75.01;101450.84;5013487;28;20046;-68
2022/01/10 09:31:30;;;;;;;44.28;16.48;;;;;;;7.19;74.77;101451.97;5019181;28;20038;-68
2022/01/10 09:33:56;;;;;;;36.83;14.05;;;;;;;7.02;75.11;101461.16;5037100;28;20048;-68
2022/01/10 09:36:25;;;;;;;38.75;16.58;;;;;;;6.83;75.73;101479.84;5038930;28;20107;-68
2022/01/10 09:38:53;;;;;;;32.63;14.02;;;;;;;7.06;75.68;101478.44;5041559;28;20489;-68
2022/01/10 09:41:19;;;;;;;39.10;14.80;;;;;;;7.11;75.26;101485.22;5033447;28;20111;-68
2022/01/10 09:43:50;;;;;;;34.67;14.75;;;;;;;6.96;75.99;101485.59;5041611;28;20476;-68
2022/01/10 09:46:18;;;;;;;48.00;15.50;;;;;;;6.82;76.19;101491.16;5040812;28;20049;-68
2022/01/10 09:48:45;;;;;;;51.05;14.65;;;;;;;7.03;75.64;101501.94;5040732;28;20235;-67
2022/01/10 09:51:11;;;;;;;37.78;14.05;;;;;;;6.96;75.93;101500.38;5043808;28;20073;-69
2022/01/10 09:53:37;;;;;;;36.10;16.13;;;;;;;7.02;75.81;101500.25;5045561;28;20421;-68
2022/01/10 09:56:04;;;;;;;41.42;14.65;;;;;;;6.99;75.32;101508.13;5035762;28;20049;-68
2022/01/10 09:58:31;;;;;;;46.78;16.52;;;;;;;6.60;77.05;101516.03;5040491;28;20045;-69
2022/01/10 10:00:59;;;;;;;45.97;17.10;;;;;;;6.82;76.94;101522.44;5031899;28;20046;-69
2022/01/10 10:03:27;;;;;;;44.95;16.88;;;;;;;6.83;76.79;101526.78;5037537;28;20103;-69
2022/01/10 10:05:53;;;;;;;60.28;18.77;;;;;;;6.79;76.53;101530.34;5044138;28;20449;-69
2022/01/10 10:08:21;;;;;;;49.63;17.98;;;;;;;7.10;75.97;101524.34;5034818;28;20635;-69
2022/01/10 10:10:48;;;;;;;54.45;17.48;;;;;;;6.83;76.88;101528.53;5048127;28;20673;-69
2022/01/10 10:13:15;;;;;;;46.63;18.60;;;;;;;6.62;77.65;101542.03;5042396;28;20455;-69
2022/01/10 10:15:44;;;;;;;54.60;19.40;;;;;;;6.88;77.00;101538.81;5045529;28;20046;-69
2022/01/10 10:18:11;;;;;;;52.38;18.42;;;;;;;7.07;76.12;101550.53;5039660;28;20418;-69
2022/01/10 10:20:41;;;;;;;48.03;18.27;;;;;;;7.13;76.02;101542.56;5042987;28;20525;-69
2022/01/10 10:23:11;;;;;;;45.90;17.53;;;;;;;7.16;75.90;101548.56;5039365;28;20447;-69
2022/01/10 10:25:38;;;;;;;51.10;18.13;;;;;;;7.20;75.53;101554.56;5047859;28;20055;-69
2022/01/10 10:28:05;;;;;;;44.08;15.77;;;;;;;7.30;75.62;101558.63;5041408;28;20049;-69
2022/01/10 10:30:32;;;;;;;49.55;17.42;;;;;;;7.32;75.08;101567.28;5034712;28;20042;-69
2022/01/10 10:33:11;;;;;;;43.13;16.42;;;;;;;7.30;75.16;101554.28;5024623;28;20049;-68
2022/01/10 10:35:39;;;;;;;46.33;17.77;;;;;;;7.41;74.75;101558.38;5041647;28;20753;-69
2022/01/10 10:38:06;;;;;;;51.20;18.35;;;;;;;7.17;75.80;101567.66;5033497;28;20099;-68
2022/01/10 10:40:39;;;;;;;45.40;16.00;;;;;;;7.23;75.75;101567.53;5045206;28;20064;-73
2022/01/10 10:43:07;;;;;;;49.17;16.70;;;;;;;7.37;74.93;101572.38;5029479;28;20126;-69
2022/01/10 10:45:34;;;;;;;44.42;15.15;;;;;;;7.46;75.07;101570.41;5028995;28;20049;-69
2022/01/10 10:48:05;;;;;;;31.45;15.00;;;;;;;7.48;75.05;101570.34;5029744;28;20045;-68
2022/01/10 10:50:34;;;;;;;;;;;;;;;7.28;75.24;101576.06;5027916;28;20057;-69
2022/01/10 10:53:04;;;;;;;36.92;15.02;;;;;;;7.16;75.98;101586.81;5014604;28;19921;-69
2022/01/10 10:55:33;;;;;;;43.78;17.33;;;;;;;7.13;76.31;101581.69;5027756;28;20594;-68
2022/01/10 10:58:00;;;;;;;46.92;18.30;;;;;;;7.37;75.01;101591.50;5040309;28;20063;-68
2022/01/10 11:00:26;;;;;;;48.65;17.35;;;;;;;7.46;75.19;101601.72;5041318;28;20575;-69
2022/01/10 11:02:53;;;;;;;44.80;17.02;;;;;;;7.23;75.30;101591.84;5028890;28;20106;-69
2022/01/10 11:05:20;;;;;;;44.05;18.10;;;;;;;7.49;75.06;101601.66;5029233;28;20091;-69
2022/01/10 11:07:46;;;;;;;48.22;18.25;;;;;;;7.45;75.57;101610.44;5028900;28;20460;-69
2022/01/10 11:10:14;;;;;;;45.38;19.08;;;;;;;7.34;75.89;101612.47;5024741;28;20088;-69
2022/01/10 11:12:41;;;;;;;46.00;18.17;;;;;;;7.54;75.58;101609.38;5029319;28;20046;-69
2022/01/10 11:15:09;;;;;;;39.47;16.67;;;;;;;7.61;75.02;101618.75;5029084;28;20049;-69
2022/01/10 11:17:40;;;;;;;45.10;15.40;;;;;;;7.55;75.23;101621.50;5029210;28;20460;-69
2022/01/10 11:20:12;;;;;;;45.92;16.98;;;;;;;7.41;75.71;101618.38;5029550;28;20111;-69